createdAt,value
2022-12-25T00:01:14.073Z,12.2
2022-12-25T00:06:49.674Z,12.2
2022-12-25T00:12:26.348Z,12
2022-12-25T00:18:03.981Z,12.1
2022-12-25T00:23:39.068Z,12.3
2022-12-25T00:29:18.589Z,12.2
2022-12-25T00:35:02.816Z,12
2022-12-25T00:40:37.762Z,11.9
2022-12-25T00:46:34.631Z,11.9
2022-12-25T00:52:09.276Z,11.9
2022-12-25T00:57:44.607Z,11.9
2022-12-25T01:03:19.540Z,11.8
2022-12-25T01:08:55.760Z,11.8
2022-12-25T01:14:32.223Z,11.8
2022-12-25T01:20:18.466Z,11.6
2022-12-25T01:26:02.776Z,11.5
2022-12-25T01:31:37.921Z,11.3
2022-12-25T01:37:13.454Z,11.3
2022-12-25T01:43:13.999Z,11.4
2022-12-25T01:49:18.753Z,11.4
2022-12-25T01:54:52.375Z,11.2
2022-12-25T02:00:29.358Z,11.2
2022-12-25T02:06:06.177Z,11.4
2022-12-25T02:11:41.432Z,11.5
2022-12-25T02:17:17.789Z,11.7
2022-12-25T02:23:10.705Z,11.7
2022-12-25T02:28:46.160Z,11.7
2022-12-25T02:34:35.200Z,11.7
2022-12-25T02:40:10.327Z,11.7
2022-12-25T02:45:45.796Z,11.6
2022-12-25T02:51:22.197Z,11.5
2022-12-25T02:57:00.884Z,11.5
2022-12-25T03:02:36.266Z,11.5
2022-12-25T03:08:22.489Z,11.5
2022-12-25T03:14:01.349Z,11.5
2022-12-25T03:19:36.408Z,11.5
2022-12-25T03:25:12.831Z,11.5
2022-12-25T03:30:48.331Z,11.5
2022-12-25T03:36:24.962Z,11.5
2022-12-25T03:42:01.004Z,11.4
2022-12-25T03:47:57.914Z,11.4
2022-12-25T03:53:30.783Z,11.3
2022-12-25T03:59:10.640Z,11.4
2022-12-25T04:05:11.509Z,11.4
2022-12-25T04:10:47.175Z,11.4
2022-12-25T04:16:23.335Z,11.4
2022-12-25T04:22:01.320Z,11.4
2022-12-25T04:27:36.557Z,11.4
2022-12-25T04:33:11.437Z,11.4
2022-12-25T04:38:46.625Z,11.2
2022-12-25T04:44:22.762Z,11.2
2022-12-25T04:49:58.012Z,11.2
2022-12-25T04:55:37.494Z,11.2
2022-12-25T05:01:12.869Z,11.1
2022-12-25T05:06:58.262Z,11.1
2022-12-25T05:12:33.684Z,11.2
2022-12-25T05:18:08.765Z,11.2
2022-12-25T05:23:48.198Z,11.3
2022-12-25T05:29:23.897Z,11.3
2022-12-25T05:34:59.289Z,11.4
2022-12-25T05:40:34.673Z,11.5
2022-12-25T05:46:39.498Z,11.6
2022-12-25T05:52:14.768Z,11.7
2022-12-25T05:57:50.210Z,11.6
2022-12-25T06:03:27.683Z,11.5
2022-12-25T06:09:04.916Z,11.3
2022-12-25T06:14:40.756Z,11.2
2022-12-25T06:20:26.772Z,11.2
2022-12-25T06:26:02.869Z,11.3
2022-12-25T06:31:38.176Z,11.4
2022-12-25T06:37:26.203Z,11.6
2022-12-25T06:43:04.981Z,11.6
2022-12-25T06:49:04.591Z,11.6
2022-12-25T06:54:37.860Z,11.7
2022-12-25T07:00:13.147Z,11.8
2022-12-25T07:05:57.738Z,11.9
2022-12-25T07:11:45.229Z,12
2022-12-25T07:17:20.951Z,12
2022-12-25T07:22:57.581Z,11.8
2022-12-25T07:28:33.037Z,11.8
2022-12-25T07:34:08.123Z,9.6
2022-12-25T07:39:47.422Z,9.2
2022-12-25T07:45:23.816Z,8.5
2022-12-25T07:50:59.731Z,9.9
2022-12-25T07:56:34.905Z,9.8
2022-12-25T08:02:18.656Z,9.7
2022-12-25T08:08:03.169Z,9.9
2022-12-25T08:13:38.257Z,10.1
2022-12-25T08:19:23.137Z,11.1
2022-12-25T08:25:00.111Z,10.9
2022-12-25T08:30:36.130Z,12
2022-12-25T08:36:12.367Z,12.2
2022-12-25T08:41:47.719Z,12.1
2022-12-25T08:47:23.506Z,12.3
2022-12-25T08:53:02.303Z,13.1
2022-12-25T08:58:45.163Z,12.4
2022-12-25T09:04:27.953Z,12.6
2022-12-25T09:10:09.961Z,12.8
2022-12-25T09:15:51.091Z,13.3
2022-12-25T09:21:53.806Z,12.6
2022-12-25T09:27:56.597Z,11.9
2022-12-25T09:33:52.003Z,12.3
2022-12-25T09:39:30.314Z,12.3
2022-12-25T09:45:20.766Z,12.6
2022-12-25T09:50:58.049Z,13.5
2022-12-25T09:56:34.003Z,14
2022-12-25T10:02:12.255Z,14.7
2022-12-25T10:07:50.016Z,15.4
2022-12-25T10:13:25.350Z,15.5
2022-12-25T10:19:01.128Z,15.5
2022-12-25T10:24:36.741Z,15.9
2022-12-25T10:30:11.963Z,16.2
2022-12-25T10:35:47.345Z,16
2022-12-25T10:41:23.787Z,16.6
2022-12-25T10:46:59.228Z,16.9
2022-12-25T10:52:40.015Z,17.1
2022-12-25T10:58:16.109Z,17
2022-12-25T11:03:51.147Z,17.1
2022-12-25T11:09:29.136Z,17.3
2022-12-25T11:15:06.274Z,17.5
2022-12-25T11:20:47.232Z,17.9
2022-12-25T11:26:23.123Z,18
2022-12-25T11:31:58.574Z,18.2
2022-12-25T11:37:35.400Z,18.4
2022-12-25T11:43:15.265Z,18.5
2022-12-25T11:49:15.124Z,18.6
2022-12-25T11:54:54.050Z,18.8
2022-12-25T12:00:52.281Z,18.9
2022-12-25T12:06:29.981Z,18.8
2022-12-25T12:12:05.472Z,19.1
2022-12-25T12:18:23.301Z,19.4
2022-12-25T12:24:24.820Z,19.6
2022-12-25T12:30:29.231Z,20
2022-12-25T12:36:05.172Z,20.3
2022-12-25T12:42:11.983Z,20.6
2022-12-25T12:48:09.298Z,20.7
2022-12-25T12:53:42.399Z,20.7
2022-12-25T12:59:31.606Z,21.1
2022-12-25T13:05:12.624Z,21.2
2022-12-25T13:10:51.690Z,21.6
2022-12-25T13:16:27.840Z,21.7
2022-12-25T13:22:20.503Z,21.8
2022-12-25T13:27:58.663Z,22.2
2022-12-25T13:33:34.159Z,22.3
2022-12-25T13:39:11.218Z,22.4
2022-12-25T13:44:51.527Z,22.4
2022-12-25T13:50:47.355Z,22.6
2022-12-25T13:56:54.128Z,23
2022-12-25T14:02:30.469Z,23.1
2022-12-25T14:08:07.806Z,23.3
2022-12-25T14:13:49.477Z,23.8
2022-12-25T14:19:33.204Z,24.2
2022-12-25T14:25:09.623Z,24.7
2022-12-25T14:30:44.514Z,22.6
2022-12-25T14:36:24.437Z,21.4
2022-12-25T14:42:11.223Z,20.3
2022-12-25T14:48:29.333Z,19.7
2022-12-25T14:54:03.525Z,19.2
2022-12-25T14:59:38.399Z,19.1
2022-12-25T15:05:13.509Z,19.1
2022-12-25T15:11:02.811Z,18.7
2022-12-25T15:16:40.782Z,18.5
2022-12-25T15:22:16.991Z,18.2
2022-12-25T15:27:59.130Z,17.7
2022-12-25T15:34:38.716Z,17.8
2022-12-25T15:40:28.922Z,17.5
2022-12-25T15:46:32.210Z,17.2
2022-12-25T15:52:07.291Z,16.9
2022-12-25T15:57:46.602Z,16.9
2022-12-25T16:03:37.019Z,16.7
2022-12-25T16:09:15.863Z,16.6
2022-12-25T16:14:56.497Z,16.2
2022-12-25T16:20:42.477Z,16
2022-12-25T16:26:36.810Z,16.1
2022-12-25T16:32:13.157Z,16.1
2022-12-25T16:37:51.939Z,16
2022-12-25T16:43:27.661Z,16
2022-12-25T16:49:02.876Z,15.7
2022-12-25T16:54:38.615Z,15.3
2022-12-25T17:00:18.694Z,15.1
2022-12-25T17:06:10.760Z,15.1
2022-12-25T17:11:46.021Z,14.9
2022-12-25T17:17:29.851Z,14.9
2022-12-25T17:23:05.174Z,14.5
2022-12-25T17:28:44.197Z,14.7
2022-12-25T17:34:40.281Z,14.5
2022-12-25T17:40:15.102Z,14.2
2022-12-25T17:45:50.005Z,13.9
2022-12-25T17:51:44.076Z,13.5
2022-12-25T17:57:19.088Z,14.2
2022-12-25T18:02:54.587Z,14.6
2022-12-25T18:08:37.098Z,14.7
2022-12-25T18:14:15.392Z,14.8
2022-12-25T18:19:50.536Z,14.8
2022-12-25T18:25:25.989Z,14.8
2022-12-25T18:31:01.556Z,14.8
2022-12-25T18:36:37.842Z,14.9
2022-12-25T18:42:13.022Z,14.8
2022-12-25T18:47:48.356Z,14.8
2022-12-25T18:53:23.629Z,14.9
2022-12-25T18:58:59.355Z,15.1
2022-12-25T19:04:36.158Z,15
2022-12-25T19:10:11.323Z,15.1
2022-12-25T19:15:47.845Z,15.2
2022-12-25T19:21:23.527Z,15.1
2022-12-25T19:26:58.681Z,14.9
2022-12-25T19:32:33.552Z,14.8
2022-12-25T19:38:08.619Z,14.8
2022-12-25T19:43:43.852Z,14.8
2022-12-25T19:49:43.673Z,14.7
2022-12-25T19:55:35.981Z,14.8
2022-12-25T20:01:16.442Z,14.7
2022-12-25T20:06:55.360Z,14.6
2022-12-25T20:12:38.890Z,14.7
2022-12-25T20:18:18.888Z,14.5
2022-12-25T20:23:55.784Z,14.4
2022-12-25T20:29:32.311Z,14.3
2022-12-25T20:35:11.444Z,14.4
2022-12-25T20:41:25.545Z,14.5
2022-12-25T20:47:31.617Z,14.3
2022-12-25T20:53:05.577Z,14.2
2022-12-25T20:58:44.227Z,14.2
2022-12-25T21:04:20.039Z,14.3
2022-12-25T21:10:02.702Z,14.3
2022-12-25T21:15:40.293Z,14.3
2022-12-25T21:21:18.627Z,14.2
2022-12-25T21:26:54.156Z,14.2
2022-12-25T21:32:34.531Z,14.2
2022-12-25T21:38:09.792Z,14
2022-12-25T21:43:52.187Z,13.8
2022-12-25T21:49:49.000Z,13.6
2022-12-25T21:55:23.528Z,13.5
2022-12-25T22:00:59.533Z,13.5
2022-12-25T22:06:36.981Z,13.5
2022-12-25T22:12:12.001Z,13.7
2022-12-25T22:17:47.319Z,13.8
2022-12-25T22:23:25.617Z,14
2022-12-25T22:29:01.155Z,14
2022-12-25T22:34:36.399Z,14.1
2022-12-25T22:40:11.484Z,14.1
2022-12-25T22:45:48.317Z,14.2
2022-12-25T22:51:24.022Z,14.2
2022-12-25T22:56:59.162Z,14
2022-12-25T23:02:36.914Z,13.9
2022-12-25T23:08:14.695Z,13.7
2022-12-25T23:13:50.125Z,13.6
2022-12-25T23:19:25.090Z,13.6
2022-12-25T23:24:59.968Z,13.7
2022-12-25T23:30:35.700Z,13.9
2022-12-25T23:36:10.720Z,13.9
2022-12-25T23:41:46.698Z,13.9
2022-12-25T23:47:44.125Z,13.8
2022-12-25T23:53:17.084Z,13.7
2022-12-25T23:58:53.458Z,13.7
